createdAt,value
2019-05-02T00:00:04.563Z,1005.69
2019-05-02T00:01:04.532Z,1005.69
2019-05-02T00:02:05.283Z,1005.70
2019-05-02T00:03:05.697Z,1005.65
2019-05-02T00:04:04.433Z,1005.64
2019-05-02T00:05:04.404Z,1005.64
2019-05-02T00:06:07.519Z,1005.62
2019-05-02T00:07:04.368Z,1005.58
2019-05-02T00:08:04.345Z,1005.67
2019-05-02T00:09:09.257Z,1005.62
2019-05-02T00:10:04.270Z,1005.61
2019-05-02T00:11:04.209Z,1005.56
2019-05-02T00:12:04.209Z,1005.63
2019-05-02T00:13:04.149Z,1005.54
2019-05-02T00:14:04.115Z,1005.58
2019-05-02T00:15:04.085Z,1005.63
2019-05-02T00:16:04.050Z,1005.57
2019-05-02T00:17:04.044Z,1005.58
2019-05-02T00:18:03.987Z,1005.55
2019-05-02T00:19:03.957Z,1005.53
2019-05-02T00:20:03.922Z,1005.48
2019-05-02T00:21:03.895Z,1005.51
2019-05-02T00:22:03.917Z,1005.47
2019-05-02T00:23:03.826Z,1005.48
2019-05-02T00:24:04.230Z,1005.49
2019-05-02T00:25:03.769Z,1005.47
2019-05-02T00:26:03.732Z,1005.44
2019-05-02T00:27:03.726Z,1005.42
2019-05-02T00:28:07.712Z,1005.40
2019-05-02T00:29:03.636Z,1005.40
2019-05-02T00:30:03.606Z,1005.36
2019-05-02T00:31:07.385Z,1005.37
2019-05-02T00:32:03.536Z,1005.35
2019-05-02T00:33:03.532Z,1005.38
2019-05-02T00:34:03.479Z,1005.32
2019-05-02T00:35:03.448Z,1005.36
2019-05-02T00:36:03.422Z,1005.36
2019-05-02T00:37:03.377Z,1005.38
2019-05-02T00:38:03.904Z,1005.32
2019-05-02T00:39:03.322Z,1005.33
2019-05-02T00:40:03.280Z,1005.34
2019-05-02T00:41:03.649Z,1005.31
2019-05-02T00:42:12.423Z,1005.27
2019-05-02T00:43:03.224Z,1005.30
2019-05-02T00:44:06.131Z,1005.27
2019-05-02T00:45:03.126Z,1005.30
2019-05-02T00:46:03.092Z,1005.32
2019-05-02T00:47:06.019Z,1005.33
2019-05-02T00:48:03.046Z,1005.29
2019-05-02T00:49:02.992Z,1005.28
2019-05-02T00:50:06.244Z,1005.27
2019-05-02T00:51:02.933Z,1005.23
2019-05-02T00:52:03.142Z,1005.23
2019-05-02T00:53:07.233Z,1005.19
2019-05-02T00:54:02.833Z,1005.20
2019-05-02T00:55:02.802Z,1005.18
2019-05-02T00:56:05.199Z,1005.17
2019-05-02T00:57:02.744Z,1005.21
2019-05-02T00:58:02.734Z,1005.18
2019-05-02T00:59:07.434Z,1005.19
2019-05-02T01:00:02.644Z,1005.18
2019-05-02T01:01:02.635Z,1005.17
2019-05-02T01:02:05.447Z,1005.16
2019-05-02T01:03:02.599Z,1005.11
2019-05-02T01:04:02.510Z,1005.10
2019-05-02T01:05:03.250Z,1005.09
2019-05-02T01:06:02.449Z,1005.06
2019-05-02T01:07:02.417Z,1005.11
2019-05-02T01:08:03.025Z,1005.09
2019-05-02T01:09:05.843Z,1005.11
2019-05-02T01:10:02.321Z,1005.08
2019-05-02T01:11:02.304Z,1005.14
2019-05-02T01:12:03.049Z,1005.11
2019-05-02T01:13:02.222Z,1005.11
2019-05-02T01:14:02.213Z,1005.13
2019-05-02T01:15:03.201Z,1005.09
2019-05-02T01:16:02.125Z,1005.08
2019-05-02T01:17:02.098Z,1005.12
2019-05-02T01:18:06.083Z,1005.16
2019-05-02T01:19:02.053Z,1005.09
2019-05-02T01:20:01.996Z,1005.16
2019-05-02T01:21:02.889Z,1005.13
2019-05-02T01:22:01.936Z,1005.12
2019-05-02T01:23:01.901Z,1005.11
2019-05-02T01:24:03.067Z,1005.09
2019-05-02T01:25:01.873Z,1005.08
2019-05-02T01:26:01.806Z,1005.05
2019-05-02T01:27:04.570Z,1005.08
2019-05-02T01:28:01.742Z,1005.03
2019-05-02T01:29:01.742Z,1005.10
2019-05-02T01:30:06.037Z,1005.02
2019-05-02T01:31:01.705Z,1005.04
2019-05-02T01:32:01.620Z,1005.05
2019-05-02T01:33:06.295Z,1005.06
2019-05-02T01:34:01.607Z,1004.98
2019-05-02T01:35:01.601Z,1005.04
2019-05-02T01:36:01.793Z,1005.03
2019-05-02T01:37:01.461Z,1005.03
2019-05-02T01:38:01.440Z,1004.98
2019-05-02T01:39:03.017Z,1005.02
2019-05-02T01:40:01.361Z,1004.97
2019-05-02T01:41:01.336Z,1005.00
2019-05-02T01:42:04.271Z,1004.99
2019-05-02T01:43:01.268Z,1004.94
2019-05-02T01:44:01.661Z,1004.99
2019-05-02T01:45:01.206Z,1004.96
2019-05-02T01:46:01.177Z,1004.95
2019-05-02T01:47:01.145Z,1004.98
2019-05-02T01:48:04.927Z,1004.93
2019-05-02T01:49:01.082Z,1004.92
2019-05-02T01:50:01.074Z,1004.86
2019-05-02T01:51:04.589Z,1004.88
2019-05-02T01:52:00.985Z,1004.93
2019-05-02T01:53:00.957Z,1004.84
2019-05-02T01:54:04.990Z,1004.85
2019-05-02T01:55:00.917Z,1004.87
2019-05-02T01:56:00.866Z,1004.82
2019-05-02T01:57:03.904Z,1004.78
2019-05-02T01:58:00.797Z,1004.78
2019-05-02T01:59:00.767Z,1004.79
2019-05-02T02:00:04.238Z,1004.76
2019-05-02T02:01:00.707Z,1004.70
2019-05-02T02:02:00.674Z,1004.76
2019-05-02T02:03:04.263Z,1004.70
2019-05-02T02:04:00.634Z,1004.71
2019-05-02T02:05:00.601Z,1004.70
2019-05-02T02:06:02.939Z,1004.67
2019-05-02T02:07:00.515Z,1004.70
2019-05-02T02:08:00.497Z,1004.67
2019-05-02T02:09:03.413Z,1004.71
2019-05-02T02:10:00.491Z,1004.71
2019-05-02T02:11:00.400Z,1004.64
2019-05-02T02:12:00.361Z,1004.64
2019-05-02T02:13:04.853Z,1004.63
2019-05-02T02:14:00.296Z,1004.62
2019-05-02T02:15:00.292Z,1004.63
2019-05-02T02:16:04.496Z,1004.65
2019-05-02T02:17:00.203Z,1004.59
2019-05-02T02:18:00.171Z,1004.55
2019-05-02T02:19:03.951Z,1004.60
2019-05-02T02:20:00.893Z,1004.57
2019-05-02T02:21:00.078Z,1004.61
2019-05-02T02:22:02.692Z,1004.57
2019-05-02T02:23:00.017Z,1004.59
2019-05-02T02:23:59.984Z,1004.66
2019-05-02T02:25:00.999Z,1004.63
2019-05-02T02:25:59.926Z,1004.65
2019-05-02T02:26:59.889Z,1004.62
2019-05-02T02:28:00.964Z,1004.62
2019-05-02T02:29:03.072Z,1004.62
2019-05-02T02:29:59.885Z,1004.63
2019-05-02T02:31:04.930Z,1004.59
2019-05-02T02:31:59.752Z,1004.56
2019-05-02T02:33:07.432Z,1004.58
2019-05-02T02:33:59.672Z,1004.53
2019-05-02T02:35:03.512Z,1004.56
2019-05-02T02:35:59.610Z,1004.61
2019-05-02T02:37:05.230Z,1004.55
2019-05-02T02:37:59.543Z,1004.60
2019-05-02T02:38:59.522Z,1004.65
2019-05-02T02:39:59.505Z,1004.63
2019-05-02T02:40:59.451Z,1004.59
2019-05-02T02:42:03.306Z,1004.67
2019-05-02T02:43:10.118Z,1004.55
2019-05-02T02:44:00.543Z,1004.50
2019-05-02T02:44:59.356Z,1004.57
2019-05-02T02:45:59.767Z,1004.60
2019-05-02T02:46:59.288Z,1004.49
2019-05-02T02:48:00.137Z,1004.60
2019-05-02T02:48:59.202Z,1004.56
2019-05-02T02:50:02.458Z,1004.52
2019-05-02T02:50:59.141Z,1004.56
2019-05-02T02:52:04.734Z,1004.52
2019-05-02T02:52:59.071Z,1004.53
2019-05-02T02:54:03.952Z,1004.70
2019-05-02T02:54:59.030Z,1004.54
2019-05-02T02:56:02.123Z,1004.54
2019-05-02T02:56:58.943Z,1004.61
2019-05-02T02:58:58.882Z,1004.58
2019-05-02T03:00:06.104Z,1004.61
2019-05-02T03:00:58.815Z,1004.60
2019-05-02T03:02:09.256Z,1004.57
2019-05-02T03:02:58.752Z,1004.62
2019-05-02T03:04:01.781Z,1004.63
2019-05-02T03:04:58.711Z,1004.62
2019-05-02T03:06:05.235Z,1004.60
2019-05-02T03:06:58.624Z,1004.51
2019-05-02T03:07:59.483Z,1004.47
2019-05-02T03:08:58.576Z,1004.47
2019-05-02T03:09:59.685Z,1004.56
2019-05-02T03:10:58.497Z,1004.51
2019-05-02T03:12:02.250Z,1004.51
2019-05-02T03:12:59.403Z,1004.47
2019-05-02T03:14:05.510Z,1004.46
2019-05-02T03:14:58.396Z,1004.49
2019-05-02T03:16:00.360Z,1004.55
2019-05-02T03:16:58.310Z,1004.53
2019-05-02T03:18:00.101Z,1004.53
2019-05-02T03:18:58.245Z,1004.48
2019-05-02T03:20:00.975Z,1004.48
2019-05-02T03:20:58.206Z,1004.53
2019-05-02T03:22:03.759Z,1004.52
2019-05-02T03:22:58.118Z,1004.50
2019-05-02T03:24:03.154Z,1004.47
2019-05-02T03:24:58.052Z,1004.50
2019-05-02T03:25:58.049Z,1004.45
2019-05-02T03:26:58.733Z,1004.51
2019-05-02T03:27:57.958Z,1004.47
2019-05-02T03:29:00.525Z,1004.46
2019-05-02T03:29:57.909Z,1004.40
2019-05-02T03:30:57.884Z,1004.45
2019-05-02T03:32:21.870Z,1004.43
2019-05-02T03:33:06.063Z,1004.42
2019-05-02T03:34:00.575Z,1004.38
2019-05-02T03:34:57.739Z,1004.38
2019-05-02T03:35:57.731Z,1004.38
2019-05-02T03:37:03.096Z,1004.39
2019-05-02T03:37:57.670Z,1004.37
2019-05-02T03:38:57.605Z,1004.40
2019-05-02T03:40:00.347Z,1004.39
2019-05-02T03:40:57.582Z,1004.36
2019-05-02T03:42:03.123Z,1004.35
2019-05-02T03:42:57.476Z,1004.31
2019-05-02T03:44:10.698Z,1004.34
2019-05-02T03:45:03.987Z,1004.33
2019-05-02T03:45:57.408Z,1004.36
2019-05-02T03:47:02.351Z,1004.37
2019-05-02T03:47:57.320Z,1004.35
2019-05-02T03:49:06.147Z,1004.38
2019-05-02T03:49:57.258Z,1004.35
2019-05-02T03:50:57.274Z,1004.35
2019-05-02T03:52:03.009Z,1004.34
2019-05-02T03:52:57.176Z,1004.34
2019-05-02T03:54:06.461Z,1004.33
2019-05-02T03:54:57.097Z,1004.35
2019-05-02T03:55:57.064Z,1004.33
2019-05-02T03:56:57.058Z,1004.31
2019-05-02T03:57:57.013Z,1004.35
2019-05-02T03:58:58.314Z,1004.39
2019-05-02T03:59:56.951Z,1004.32
2019-05-02T04:01:01.628Z,1004.30
2019-05-02T04:01:56.901Z,1004.34
2019-05-02T04:03:00.411Z,1004.35
2019-05-02T04:03:56.819Z,1004.38
2019-05-02T04:05:00.580Z,1004.44
2019-05-02T04:05:56.755Z,1004.38
2019-05-02T04:07:01.045Z,1004.40
2019-05-02T04:07:56.686Z,1004.42
2019-05-02T04:09:00.029Z,1004.38
2019-05-02T04:09:56.628Z,1004.46
2019-05-02T04:10:59.614Z,1004.49
2019-05-02T04:11:56.594Z,1004.45
2019-05-02T04:12:58.510Z,1004.44
2019-05-02T04:13:56.508Z,1004.40
2019-05-02T04:14:57.410Z,1004.43
2019-05-02T04:15:56.491Z,1004.45
2019-05-02T04:16:59.325Z,1004.42
2019-05-02T04:17:56.476Z,1004.47
2019-05-02T04:18:58.233Z,1004.41
2019-05-02T04:19:56.360Z,1004.49
2019-05-02T04:20:56.387Z,1004.45
2019-05-02T04:22:01.699Z,1004.44
2019-05-02T04:22:56.274Z,1004.41
2019-05-02T04:24:07.775Z,1004.52
2019-05-02T04:24:56.799Z,1004.43
2019-05-02T04:25:56.124Z,1004.40
2019-05-02T04:26:56.420Z,1004.43
2019-05-02T04:27:56.068Z,1004.48
2019-05-02T04:28:56.034Z,1004.47
2019-05-02T04:29:56.020Z,1004.44
2019-05-02T04:30:55.974Z,1004.43
2019-05-02T04:31:55.961Z,1004.49
2019-05-02T04:32:57.767Z,1004.36
2019-05-02T04:33:55.875Z,1004.50
2019-05-02T04:34:58.010Z,1004.38
2019-05-02T04:35:59.356Z,1004.38
2019-05-02T04:37:01.327Z,1004.32
2019-05-02T04:37:59.109Z,1004.46
2019-05-02T04:38:55.711Z,1004.42
2019-05-02T04:39:59.099Z,1004.41
2019-05-02T04:40:58.978Z,1004.37
2019-05-02T04:41:58.409Z,1004.37
2019-05-02T04:43:02.096Z,1004.39
2019-05-02T04:43:58.803Z,1004.39
2019-05-02T04:45:14.215Z,1004.43
2019-05-02T04:45:59.179Z,1004.41
2019-05-02T04:46:59.865Z,1004.44
2019-05-02T04:48:00.929Z,1004.43
2019-05-02T04:48:55.393Z,1004.47
2019-05-02T04:49:55.407Z,1004.51
2019-05-02T04:50:59.739Z,1004.43
2019-05-02T04:52:04.564Z,1004.42
2019-05-02T04:52:55.290Z,1004.44
2019-05-02T04:53:58.571Z,1004.41
2019-05-02T04:55:08.186Z,1004.44
2019-05-02T04:56:01.578Z,1004.42
2019-05-02T04:56:55.585Z,1004.41
2019-05-02T04:57:55.133Z,1004.44
2019-05-02T04:58:55.079Z,1004.42
2019-05-02T05:00:02.467Z,1004.41
2019-05-02T05:00:59.248Z,1004.49
2019-05-02T05:01:58.535Z,1004.43
2019-05-02T05:02:54.979Z,1004.45
2019-05-02T05:03:58.266Z,1004.47
2019-05-02T05:04:54.914Z,1004.48
2019-05-02T05:06:01.576Z,1004.53
2019-05-02T05:06:58.209Z,1004.51
2019-05-02T05:07:54.821Z,1004.41
2019-05-02T05:08:54.765Z,1004.42
2019-05-02T05:09:58.354Z,1004.39
2019-05-02T05:10:54.710Z,1004.44
2019-05-02T05:11:59.001Z,1004.41
2019-05-02T05:12:54.669Z,1004.46
2019-05-02T05:13:57.657Z,1004.44
2019-05-02T05:14:54.575Z,1004.47
2019-05-02T05:15:54.546Z,1004.40
2019-05-02T05:16:56.128Z,1004.45
2019-05-02T05:17:54.508Z,1004.41
2019-05-02T05:19:00.106Z,1004.45
2019-05-02T05:19:54.422Z,1004.42
2019-05-02T05:20:54.449Z,1004.40
2019-05-02T05:21:56.757Z,1004.45
2019-05-02T05:22:54.350Z,1004.45
2019-05-02T05:23:59.623Z,1004.49
2019-05-02T05:24:54.263Z,1004.49
2019-05-02T05:25:55.807Z,1004.49
2019-05-02T05:26:54.202Z,1004.44
2019-05-02T05:27:58.788Z,1004.49
2019-05-02T05:28:54.139Z,1004.52
2019-05-02T05:30:00.803Z,1004.49
2019-05-02T05:30:54.080Z,1004.54
2019-05-02T05:31:55.250Z,1004.50
2019-05-02T05:32:54.042Z,1004.55
2019-05-02T05:33:53.988Z,1004.52
2019-05-02T05:34:53.951Z,1004.50
2019-05-02T05:35:53.987Z,1004.53
2019-05-02T05:36:53.887Z,1004.48
2019-05-02T05:37:53.880Z,1004.51
2019-05-02T05:38:53.824Z,1004.46
2019-05-02T05:39:53.793Z,1004.52
2019-05-02T05:40:53.770Z,1004.48
2019-05-02T05:41:53.732Z,1004.51
2019-05-02T05:42:53.710Z,1004.47
2019-05-02T05:43:53.764Z,1004.52
2019-05-02T05:44:53.639Z,1004.46
2019-05-02T05:46:01.323Z,1004.44
2019-05-02T05:46:53.577Z,1004.47
2019-05-02T05:47:57.521Z,1004.48
2019-05-02T05:48:53.537Z,1004.47
2019-05-02T05:49:57.690Z,1004.45
2019-05-02T05:50:53.454Z,1004.45
2019-05-02T05:51:54.386Z,1004.45
2019-05-02T05:52:53.398Z,1004.43
2019-05-02T05:53:59.102Z,1004.41
2019-05-02T05:54:53.330Z,1004.47
2019-05-02T05:55:53.679Z,1004.49
2019-05-02T05:56:53.268Z,1004.50
2019-05-02T05:57:59.529Z,1004.50
2019-05-02T05:58:53.235Z,1004.49
2019-05-02T05:59:53.182Z,1004.51
2019-05-02T06:00:55.347Z,1004.49
2019-05-02T06:01:53.116Z,1004.47
2019-05-02T06:02:56.747Z,1004.53
2019-05-02T06:03:53.077Z,1004.47
2019-05-02T06:04:55.383Z,1004.51
2019-05-02T06:05:52.996Z,1004.52
2019-05-02T06:06:54.106Z,1004.48
2019-05-02T06:07:52.931Z,1004.51
2019-05-02T06:08:54.205Z,1004.50
2019-05-02T06:09:52.865Z,1004.52
2019-05-02T06:10:52.865Z,1004.53
2019-05-02T06:11:55.390Z,1004.48
2019-05-02T06:12:52.777Z,1004.51
2019-05-02T06:13:52.807Z,1004.49
2019-05-02T06:14:56.241Z,1004.50
2019-05-02T06:16:02.107Z,1004.43
2019-05-02T06:16:53.286Z,1004.47
2019-05-02T06:17:52.624Z,1004.43
2019-05-02T06:18:52.592Z,1004.39
2019-05-02T06:19:53.607Z,1004.47
2019-05-02T06:20:52.534Z,1004.32
2019-05-02T06:21:52.507Z,1004.35
2019-05-02T06:22:55.073Z,1004.33
2019-05-02T06:23:52.438Z,1004.25
2019-05-02T06:24:52.438Z,1004.24
2019-05-02T06:25:52.384Z,1004.22
2019-05-02T06:26:52.353Z,1004.21
2019-05-02T06:27:52.322Z,1004.27
2019-05-02T06:28:52.291Z,1004.21
2019-05-02T06:29:56.188Z,1004.22
2019-05-02T06:30:52.225Z,1004.20
2019-05-02T06:31:52.199Z,1004.22
2019-05-02T06:32:54.844Z,1004.23
2019-05-02T06:33:52.138Z,1004.26
2019-05-02T06:34:52.156Z,1004.18
2019-05-02T06:35:58.328Z,1004.18
2019-05-02T06:36:52.056Z,1004.16
2019-05-02T06:37:52.116Z,1004.21
2019-05-02T06:38:56.156Z,1004.14
2019-05-02T06:39:51.986Z,1004.20
2019-05-02T06:40:51.934Z,1004.09
2019-05-02T06:41:56.759Z,1004.10
2019-05-02T06:42:51.871Z,1004.02
2019-05-02T06:43:51.840Z,1004.06
2019-05-02T06:44:54.909Z,1004.09
2019-05-02T06:45:51.788Z,1004.03
2019-05-02T06:46:51.754Z,1004.04
2019-05-02T06:47:51.721Z,1004.07
2019-05-02T06:48:52.349Z,1004.07
2019-05-02T06:49:56.065Z,1004.07
2019-05-02T06:50:51.639Z,1004.06
2019-05-02T06:51:56.378Z,1004.08
2019-05-02T06:52:51.667Z,1004.08
2019-05-02T06:53:51.558Z,1004.04
2019-05-02T06:54:54.088Z,1004.04
2019-05-02T06:55:51.488Z,1004.09
2019-05-02T06:56:51.460Z,1004.08
2019-05-02T06:57:51.885Z,1004.07
2019-05-02T06:58:51.412Z,1004.10
2019-05-02T06:59:54.644Z,1004.12
2019-05-02T07:00:58.041Z,1004.08
2019-05-02T07:01:52.392Z,1004.07
2019-05-02T07:02:51.337Z,1004.17
2019-05-02T07:03:51.254Z,1004.14
2019-05-02T07:04:54.807Z,1004.08
2019-05-02T07:05:51.210Z,1004.06
2019-05-02T07:06:58.902Z,1004.08
2019-05-02T07:07:51.161Z,1004.13
2019-05-02T07:08:51.162Z,1004.07
2019-05-02T07:09:51.192Z,1004.10
2019-05-02T07:10:51.050Z,1004.18
2019-05-02T07:11:57.819Z,1004.17
2019-05-02T07:12:56.738Z,1004.17
2019-05-02T07:13:50.967Z,1004.21
2019-05-02T07:14:50.959Z,1004.21
2019-05-02T07:15:50.912Z,1004.22
2019-05-02T07:16:54.491Z,1004.23
2019-05-02T07:17:50.872Z,1004.21
2019-05-02T07:18:50.836Z,1004.22
2019-05-02T07:19:50.820Z,1004.22
2019-05-02T07:20:50.761Z,1004.25
2019-05-02T07:21:53.125Z,1004.21
2019-05-02T07:22:50.703Z,1004.22
2019-05-02T07:23:53.669Z,1004.18
2019-05-02T07:24:50.647Z,1004.24
2019-05-02T07:25:50.644Z,1004.23
2019-05-02T07:26:52.197Z,1004.25
2019-05-02T07:27:50.558Z,1004.21
2019-05-02T07:28:50.528Z,1004.22
2019-05-02T07:29:52.062Z,1004.23
2019-05-02T07:30:50.499Z,1004.28
2019-05-02T07:31:53.346Z,1004.22
2019-05-02T07:32:50.417Z,1004.17
2019-05-02T07:33:50.386Z,1004.15
2019-05-02T07:34:50.353Z,1004.19
2019-05-02T07:35:50.356Z,1004.18
2019-05-02T07:36:50.301Z,1004.20
2019-05-02T07:37:50.265Z,1004.23
2019-05-02T07:38:50.258Z,1004.21
2019-05-02T07:39:50.213Z,1004.18
2019-05-02T07:40:52.979Z,1004.18
2019-05-02T07:41:50.149Z,1004.20
2019-05-02T07:42:50.123Z,1004.23
2019-05-02T07:43:52.125Z,1004.26
2019-05-02T07:44:50.064Z,1004.22
2019-05-02T07:45:50.057Z,1004.18
2019-05-02T07:46:51.828Z,1004.17
2019-05-02T07:47:49.991Z,1004.26
2019-05-02T07:48:54.429Z,1004.25
2019-05-02T07:49:49.927Z,1004.19
2019-05-02T07:50:50.330Z,1004.17
2019-05-02T07:51:52.288Z,1004.14
2019-05-02T07:52:49.828Z,1004.20
2019-05-02T07:53:49.866Z,1004.14
2019-05-02T07:54:49.770Z,1004.11
2019-05-02T07:55:49.769Z,1004.13
2019-05-02T07:56:53.379Z,1004.15
2019-05-02T07:57:49.688Z,1004.12
2019-05-02T07:58:49.661Z,1004.06
2019-05-02T07:59:49.978Z,1004.07
2019-05-02T08:00:49.624Z,1004.17
2019-05-02T08:01:49.981Z,1004.14
2019-05-02T08:02:49.548Z,1004.07
2019-05-02T08:03:49.512Z,1004.13
2019-05-02T08:04:49.486Z,1004.08
2019-05-02T08:05:49.481Z,1004.09
2019-05-02T08:06:49.424Z,1004.07
2019-05-02T08:07:53.392Z,1004.06
2019-05-02T08:08:49.363Z,1004.06
2019-05-02T08:09:49.342Z,1004.03
2019-05-02T08:10:53.761Z,1004.10
2019-05-02T08:11:49.278Z,1004.02
2019-05-02T08:12:49.252Z,1004.03
2019-05-02T08:13:49.684Z,1003.98
2019-05-02T08:14:49.195Z,1003.97
2019-05-02T08:15:50.901Z,1004.07
2019-05-02T08:16:49.162Z,1004.01
2019-05-02T08:17:53.470Z,1004.08
2019-05-02T08:18:49.095Z,1004.06
2019-05-02T08:19:49.049Z,1004.05
2019-05-02T08:20:51.018Z,1004.03
2019-05-02T08:21:49.020Z,1004.08
2019-05-02T08:22:50.384Z,1004.04
2019-05-02T08:23:51.360Z,1004.09
2019-05-02T08:24:48.933Z,1004.03
2019-05-02T08:25:48.878Z,1004.02
2019-05-02T08:26:48.872Z,1004.07
2019-05-02T08:27:48.821Z,1004.04
2019-05-02T08:28:51.881Z,1004.08
2019-05-02T08:29:48.800Z,1004.08
2019-05-02T08:30:48.745Z,1004.07
2019-05-02T08:31:48.731Z,1004.08
2019-05-02T08:32:48.691Z,1004.09
2019-05-02T08:33:48.710Z,1004.08
2019-05-02T08:34:51.608Z,1004.09
2019-05-02T08:35:48.596Z,1004.08
2019-05-02T08:36:48.600Z,1004.04
2019-05-02T08:37:48.538Z,1004.06
2019-05-02T08:38:48.976Z,1004.05
2019-05-02T08:39:48.540Z,1004.12
2019-05-02T08:40:49.789Z,1004.11
2019-05-02T08:41:51.201Z,1004.14
2019-05-02T08:42:48.400Z,1004.17
2019-05-02T08:43:48.369Z,1004.13
2019-05-02T08:44:51.362Z,1004.12
2019-05-02T08:45:48.322Z,1004.14
2019-05-02T08:46:51.357Z,1004.13
2019-05-02T08:47:48.259Z,1004.17
2019-05-02T08:48:50.572Z,1004.11
2019-05-02T08:49:54.023Z,1004.17
2019-05-02T08:50:48.177Z,1004.18
2019-05-02T08:51:48.182Z,1004.15
2019-05-02T08:52:48.288Z,1004.19
2019-05-02T08:53:52.196Z,1004.16
2019-05-02T08:54:48.065Z,1004.16
2019-05-02T08:55:48.034Z,1004.15
2019-05-02T08:56:48.039Z,1004.20
2019-05-02T08:57:47.979Z,1004.13
2019-05-02T08:58:49.856Z,1004.13
2019-05-02T08:59:47.922Z,1004.14
2019-05-02T09:00:47.892Z,1004.12
2019-05-02T09:01:49.498Z,1004.11
2019-05-02T09:02:47.832Z,1004.18
2019-05-02T09:03:55.293Z,1004.13
2019-05-02T09:04:57.972Z,1004.20
2019-05-02T09:05:47.748Z,1004.22
2019-05-02T09:06:47.745Z,1004.20
2019-05-02T09:07:47.694Z,1004.18
2019-05-02T09:08:51.354Z,1004.24
2019-05-02T09:09:47.637Z,1004.25
2019-05-02T09:10:47.611Z,1004.16
2019-05-02T09:11:57.579Z,1004.14
2019-05-02T09:12:47.575Z,1004.15
2019-05-02T09:13:47.576Z,1004.14
2019-05-02T09:14:47.501Z,1004.10
2019-05-02T09:15:51.177Z,1004.08
2019-05-02T09:16:47.444Z,1004.12
2019-05-02T09:17:53.021Z,1004.13
2019-05-02T09:18:51.785Z,1004.10
2019-05-02T09:19:59.530Z,1004.15
2019-05-02T09:20:52.587Z,1004.09
2019-05-02T09:21:47.958Z,1004.11
2019-05-02T09:22:54.035Z,1004.06
2019-05-02T09:23:47.243Z,1004.06
2019-05-02T09:24:47.217Z,1004.14
2019-05-02T09:25:47.188Z,1004.11
2019-05-02T09:26:47.160Z,1004.10
2019-05-02T09:27:47.183Z,1004.08
2019-05-02T09:28:47.105Z,1004.13
2019-05-02T09:29:47.079Z,1004.06
2019-05-02T09:30:47.048Z,1004.04
2019-05-02T09:31:47.019Z,1004.05
2019-05-02T09:32:47.019Z,1004.05
2019-05-02T09:33:47.080Z,1004.09
2019-05-02T09:34:46.934Z,1004.15
2019-05-02T09:35:46.915Z,1003.97
2019-05-02T09:36:46.897Z,1004.04
2019-05-02T09:37:46.874Z,1004.10
2019-05-02T09:38:48.816Z,1004.07
2019-05-02T09:39:46.798Z,1004.09
2019-05-02T09:40:47.187Z,1004.10
2019-05-02T09:41:46.745Z,1004.06
2019-05-02T09:42:47.479Z,1004.06
2019-05-02T09:43:46.691Z,1004.05
2019-05-02T09:44:47.892Z,1004.02
2019-05-02T09:45:46.635Z,1004.03
2019-05-02T09:46:47.528Z,1004.04
2019-05-02T09:47:56.747Z,1004.03
2019-05-02T09:48:46.555Z,1004.20
2019-05-02T09:49:49.174Z,1004.01
2019-05-02T09:50:46.506Z,1004.04
2019-05-02T09:51:50.267Z,1004.03
2019-05-02T09:52:46.484Z,1004.05
2019-05-02T09:53:46.431Z,1004.01
2019-05-02T09:54:46.396Z,1004.03
2019-05-02T09:55:50.191Z,1003.99
2019-05-02T09:56:46.967Z,1004.03
2019-05-02T09:57:46.334Z,1004.02
2019-05-02T09:58:49.178Z,1004.06
2019-05-02T09:59:50.615Z,1004.02
2019-05-02T10:00:46.232Z,1004.04
2019-05-02T10:01:46.199Z,1004.03
2019-05-02T10:02:46.180Z,1004.02
2019-05-02T10:03:46.173Z,1004.03
2019-05-02T10:04:46.124Z,1004.00
2019-05-02T10:05:46.102Z,1003.96
2019-05-02T10:06:46.071Z,1003.99
2019-05-02T10:07:48.496Z,1004.05
2019-05-02T10:08:46.747Z,1004.08
2019-05-02T10:09:45.990Z,1004.04
2019-05-02T10:10:46.273Z,1004.10
2019-05-02T10:11:45.948Z,1004.02
2019-05-02T10:12:45.917Z,1003.99
2019-05-02T10:13:45.937Z,1003.96
2019-05-02T10:14:45.868Z,1004.02
2019-05-02T10:15:45.902Z,1003.93
2019-05-02T10:16:45.928Z,1003.98
2019-05-02T10:17:46.841Z,1003.96
2019-05-02T10:18:45.825Z,1004.04
2019-05-02T10:19:49.579Z,1003.97
2019-05-02T10:20:45.705Z,1004.09
2019-05-02T10:21:46.871Z,1003.98
2019-05-02T10:22:45.649Z,1003.93
2019-05-02T10:23:45.647Z,1003.91
2019-05-02T10:24:45.598Z,1003.88
2019-05-02T10:25:46.893Z,1003.89
2019-05-02T10:26:46.387Z,1003.96
2019-05-02T10:27:47.491Z,1003.94
2019-05-02T10:28:49.385Z,1003.90
2019-05-02T10:29:45.474Z,1003.92
2019-05-02T10:30:47.356Z,1003.92
2019-05-02T10:31:45.412Z,1003.92
2019-05-02T10:32:47.284Z,1003.84
2019-05-02T10:33:45.382Z,1003.92
2019-05-02T10:34:47.538Z,1003.90
2019-05-02T10:35:45.306Z,1003.87
2019-05-02T10:36:45.583Z,1003.85
2019-05-02T10:37:45.256Z,1003.83
2019-05-02T10:38:49.025Z,1003.84
2019-05-02T10:39:45.197Z,1003.86
2019-05-02T10:40:48.398Z,1003.84
2019-05-02T10:41:45.148Z,1003.81
2019-05-02T10:42:45.117Z,1003.79
2019-05-02T10:43:46.986Z,1003.84
2019-05-02T10:44:45.065Z,1003.82
2019-05-02T10:45:47.520Z,1003.86
2019-05-02T10:46:45.014Z,1003.78
2019-05-02T10:47:44.984Z,1003.87
2019-05-02T10:48:44.986Z,1003.82
2019-05-02T10:49:44.960Z,1003.89
2019-05-02T10:50:44.902Z,1003.95
2019-05-02T10:51:49.526Z,1003.81
2019-05-02T10:52:44.858Z,1003.82
2019-05-02T10:53:47.001Z,1003.79
2019-05-02T10:54:44.826Z,1003.78
2019-05-02T10:55:44.772Z,1003.82
2019-05-02T10:56:44.741Z,1003.80
2019-05-02T10:57:44.722Z,1003.71
2019-05-02T10:58:44.695Z,1003.84
2019-05-02T10:59:44.687Z,1003.73
2019-05-02T11:00:45.495Z,1003.84
2019-05-02T11:01:44.609Z,1003.78
2019-05-02T11:02:44.582Z,1003.81
2019-05-02T11:03:47.480Z,1003.76
2019-05-02T11:04:44.547Z,1003.84
2019-05-02T11:05:44.506Z,1003.79
2019-05-02T11:06:46.280Z,1003.90
2019-05-02T11:07:44.448Z,1003.89
2019-05-02T11:08:46.131Z,1003.79
2019-05-02T11:09:44.410Z,1003.89
2019-05-02T11:10:44.359Z,1003.75
2019-05-02T11:11:44.327Z,1003.82
2019-05-02T11:12:46.852Z,1003.79
2019-05-02T11:13:44.274Z,1003.80
2019-05-02T11:14:44.275Z,1003.78
2019-05-02T11:15:44.251Z,1003.83
2019-05-02T11:16:44.194Z,1003.81
2019-05-02T11:17:44.193Z,1003.78
2019-05-02T11:18:45.230Z,1003.72
2019-05-02T11:19:44.149Z,1003.66
2019-05-02T11:20:44.088Z,1003.84
2019-05-02T11:21:55.365Z,1003.75
2019-05-02T11:22:44.030Z,1003.76
2019-05-02T11:23:44.039Z,1003.78
2019-05-02T11:24:43.973Z,1003.86
2019-05-02T11:25:43.979Z,1003.76
2019-05-02T11:26:43.915Z,1003.78
2019-05-02T11:27:43.895Z,1003.79
2019-05-02T11:28:43.865Z,1003.82
2019-05-02T11:29:43.834Z,1003.81
2019-05-02T11:30:43.833Z,1003.88
2019-05-02T11:31:43.783Z,1003.80
2019-05-02T11:32:43.762Z,1003.77
2019-05-02T11:33:43.740Z,1003.86
2019-05-02T11:34:43.701Z,1003.78
2019-05-02T11:35:48.923Z,1003.73
2019-05-02T11:36:43.645Z,1003.72
2019-05-02T11:37:43.620Z,1003.72
2019-05-02T11:38:46.251Z,1003.72
2019-05-02T11:39:50.137Z,1003.72
2019-05-02T11:40:43.562Z,1003.72
2019-05-02T11:41:43.512Z,1003.72
2019-05-02T11:42:43.484Z,1003.75
2019-05-02T11:43:44.951Z,1003.73
2019-05-02T11:44:43.499Z,1003.73
2019-05-02T11:45:43.430Z,1003.72
2019-05-02T11:46:46.937Z,1003.80
2019-05-02T11:47:43.346Z,1003.71
2019-05-02T11:48:55.414Z,1003.74
2019-05-02T11:49:46.867Z,1003.70
2019-05-02T11:50:43.292Z,1003.72
2019-05-02T11:51:47.053Z,1003.74
2019-05-02T11:52:43.222Z,1003.71
2019-05-02T11:53:43.183Z,1003.69
2019-05-02T11:54:44.724Z,1003.74
2019-05-02T11:55:43.843Z,1003.70
2019-05-02T11:56:48.983Z,1003.72
2019-05-02T11:57:43.077Z,1003.75
2019-05-02T11:58:48.223Z,1003.72
2019-05-02T11:59:43.052Z,1003.68
2019-05-02T12:00:48.021Z,1003.67
2019-05-02T12:01:56.552Z,1003.65
2019-05-02T12:02:42.940Z,1003.72
2019-05-02T12:03:42.918Z,1003.62
2019-05-02T12:04:42.889Z,1003.72
2019-05-02T12:05:42.902Z,1003.69